sensor_id;sensor_type;location;lat;lon;timestamp;temperature;humidity
54680;DHT22;40578;53.178;5.846;2022-12-07T00:03:54;3.90;99.90
54680;DHT22;40578;53.178;5.846;2022-12-07T00:06:26;3.90;99.90
54680;DHT22;40578;53.178;5.846;2022-12-07T00:08:52;3.90;99.90
54680;DHT22;40578;53.178;5.846;2022-12-07T00:11:19;3.90;99.90
54680;DHT22;40578;53.178;5.846;2022-12-07T00:13:46;4.10;99.90
54680;DHT22;40578;53.178;5.846;2022-12-07T00:16:14;4.00;99.90
54680;DHT22;40578;53.178;5.846;2022-12-07T00:18:41;3.90;99.90
54680;DHT22;40578;53.178;5.846;2022-12-07T00:21:10;3.90;99.90
54680;DHT22;40578;53.178;5.846;2022-12-07T00:23:37;3.80;99.90
54680;DHT22;40578;53.178;5.846;2022-12-07T00:26:04;4.10;99.90
54680;DHT22;40578;53.178;5.846;2022-12-07T00:28:30;3.90;99.90
54680;DHT22;40578;53.178;5.846;2022-12-07T00:31:08;3.80;99.90
54680;DHT22;40578;53.178;5.846;2022-12-07T00:33:34;4.20;99.90
54680;DHT22;40578;53.178;5.846;2022-12-07T00:36:01;4.30;99.90
54680;DHT22;40578;53.178;5.846;2022-12-07T00:38:29;4.00;99.90
54680;DHT22;40578;53.178;5.846;2022-12-07T00:40:57;4.10;99.90
54680;DHT22;40578;53.178;5.846;2022-12-07T00:43:23;4.40;99.90
54680;DHT22;40578;53.178;5.846;2022-12-07T00:45:48;4.30;99.90
54680;DHT22;40578;53.178;5.846;2022-12-07T00:48:14;4.30;99.90
54680;DHT22;40578;53.178;5.846;2022-12-07T00:50:40;4.40;99.90
54680;DHT22;40578;53.178;5.846;2022-12-07T00:53:05;4.10;99.90
54680;DHT22;40578;53.178;5.846;2022-12-07T00:55:35;4.20;99.90
54680;DHT22;40578;53.178;5.846;2022-12-07T00:58:00;4.00;99.90
54680;DHT22;40578;53.178;5.846;2022-12-07T01:00:26;3.90;99.90
54680;DHT22;40578;53.178;5.846;2022-12-07T01:02:52;4.10;99.90
54680;DHT22;40578;53.178;5.846;2022-12-07T01:05:18;4.00;99.90
54680;DHT22;40578;53.178;5.846;2022-12-07T01:07:44;4.00;99.90
54680;DHT22;40578;53.178;5.846;2022-12-07T01:10:15;4.00;99.90
54680;DHT22;40578;53.178;5.846;2022-12-07T01:12:41;3.80;99.90
54680;DHT22;40578;53.178;5.846;2022-12-07T01:15:07;3.90;99.90
54680;DHT22;40578;53.178;5.846;2022-12-07T01:17:34;3.80;99.90
54680;DHT22;40578;53.178;5.846;2022-12-07T01:19:59;4.50;99.90
54680;DHT22;40578;53.178;5.846;2022-12-07T01:22:25;4.00;99.90
54680;DHT22;40578;53.178;5.846;2022-12-07T01:24:51;3.90;99.90
54680;DHT22;40578;53.178;5.846;2022-12-07T01:27:16;4.10;99.90
54680;DHT22;40578;53.178;5.846;2022-12-07T01:29:42;4.20;99.90
54680;DHT22;40578;53.178;5.846;2022-12-07T01:32:08;3.90;99.90
54680;DHT22;40578;53.178;5.846;2022-12-07T01:34:33;5.90;99.90
54680;DHT22;40578;53.178;5.846;2022-12-07T01:36:59;3.90;99.90
54680;DHT22;40578;53.178;5.846;2022-12-07T01:39:24;3.90;99.90
54680;DHT22;40578;53.178;5.846;2022-12-07T01:41:50;3.90;99.90
54680;DHT22;40578;53.178;5.846;2022-12-07T01:44:17;4.00;99.90
54680;DHT22;40578;53.178;5.846;2022-12-07T01:46:46;3.60;99.90
54680;DHT22;40578;53.178;5.846;2022-12-07T01:49:27;3.90;99.90
54680;DHT22;40578;53.178;5.846;2022-12-07T01:52:10;3.80;99.90
54680;DHT22;40578;53.178;5.846;2022-12-07T01:54:38;3.80;99.90
54680;DHT22;40578;53.178;5.846;2022-12-07T01:57:04;4.00;99.90
54680;DHT22;40578;53.178;5.846;2022-12-07T01:59:31;4.00;99.90
54680;DHT22;40578;53.178;5.846;2022-12-07T02:01:57;3.70;99.90
54680;DHT22;40578;53.178;5.846;2022-12-07T02:04:23;4.00;99.90
54680;DHT22;40578;53.178;5.846;2022-12-07T02:06:50;3.90;99.90
54680;DHT22;40578;53.178;5.846;2022-12-07T02:09:16;3.80;99.90
54680;DHT22;40578;53.178;5.846;2022-12-07T02:11:41;3.60;99.90
54680;DHT22;40578;53.178;5.846;2022-12-07T02:14:07;3.80;99.90
54680;DHT22;40578;53.178;5.846;2022-12-07T02:22:07;3.90;99.90
54680;DHT22;40578;53.178;5.846;2022-12-07T02:24:54;3.60;99.90
54680;DHT22;40578;53.178;5.846;2022-12-07T02:27:36;3.60;99.90
54680;DHT22;40578;53.178;5.846;2022-12-07T02:30:07;3.90;99.90
54680;DHT22;40578;53.178;5.846;2022-12-07T02:32:57;3.80;99.90
54680;DHT22;40578;53.178;5.846;2022-12-07T02:35:44;3.80;99.90
54680;DHT22;40578;53.178;5.846;2022-12-07T02:38:16;4.00;99.90
54680;DHT22;40578;53.178;5.846;2022-12-07T02:40:55;4.00;99.90
54680;DHT22;40578;53.178;5.846;2022-12-07T02:43:28;4.20;99.90
54680;DHT22;40578;53.178;5.846;2022-12-07T02:46:01;4.10;99.90
54680;DHT22;40578;53.178;5.846;2022-12-07T02:48:28;4.20;99.90
54680;DHT22;40578;53.178;5.846;2022-12-07T02:50:55;4.10;99.90
54680;DHT22;40578;53.178;5.846;2022-12-07T02:53:39;4.10;99.90
54680;DHT22;40578;53.178;5.846;2022-12-07T03:04:32;4.00;99.90
54680;DHT22;40578;53.178;5.846;2022-12-07T03:13:09;4.10;99.90
54680;DHT22;40578;53.178;5.846;2022-12-07T03:18:25;4.00;99.90
54680;DHT22;40578;53.178;5.846;2022-12-07T03:20:56;4.10;99.90
54680;DHT22;40578;53.178;5.846;2022-12-07T03:23:23;4.00;99.90
54680;DHT22;40578;53.178;5.846;2022-12-07T03:25:55;5.70;99.90
54680;DHT22;40578;53.178;5.846;2022-12-07T03:28:24;4.20;99.90
54680;DHT22;40578;53.178;5.846;2022-12-07T03:31:16;4.00;99.90
54680;DHT22;40578;53.178;5.846;2022-12-07T03:34:11;4.00;99.90
54680;DHT22;40578;53.178;5.846;2022-12-07T03:37:22;4.10;99.90
54680;DHT22;40578;53.178;5.846;2022-12-07T03:42:51;4.30;1.00
54680;DHT22;40578;53.178;5.846;2022-12-07T03:45:17;4.20;1.00
54680;DHT22;40578;53.178;5.846;2022-12-07T03:48:01;4.30;99.90
54680;DHT22;40578;53.178;5.846;2022-12-07T03:53:27;4.30;99.90
54680;DHT22;40578;53.178;5.846;2022-12-07T03:55:54;4.30;1.00
54680;DHT22;40578;53.178;5.846;2022-12-07T03:58:21;4.30;1.00
54680;DHT22;40578;53.178;5.846;2022-12-07T04:00:49;4.20;1.00
54680;DHT22;40578;53.178;5.846;2022-12-07T04:03:15;4.30;1.00
54680;DHT22;40578;53.178;5.846;2022-12-07T04:05:42;4.20;1.00
54680;DHT22;40578;53.178;5.846;2022-12-07T04:08:07;4.10;1.00
54680;DHT22;40578;53.178;5.846;2022-12-07T04:10:34;4.20;1.00
54680;DHT22;40578;53.178;5.846;2022-12-07T04:13:00;4.20;1.00
54680;DHT22;40578;53.178;5.846;2022-12-07T04:15:25;4.00;1.00
54680;DHT22;40578;53.178;5.846;2022-12-07T04:17:51;4.00;1.00
54680;DHT22;40578;53.178;5.846;2022-12-07T04:20:17;4.00;1.00
54680;DHT22;40578;53.178;5.846;2022-12-07T04:22:42;4.00;1.00
54680;DHT22;40578;53.178;5.846;2022-12-07T04:25:08;3.90;99.90
54680;DHT22;40578;53.178;5.846;2022-12-07T04:27:34;4.00;99.90
54680;DHT22;40578;53.178;5.846;2022-12-07T04:30:00;3.80;99.90
54680;DHT22;40578;53.178;5.846;2022-12-07T04:32:27;3.90;99.90
54680;DHT22;40578;53.178;5.846;2022-12-07T04:34:53;3.80;1.00
54680;DHT22;40578;53.178;5.846;2022-12-07T04:37:19;4.10;1.00
54680;DHT22;40578;53.178;5.846;2022-12-07T04:39:44;3.90;1.00
54680;DHT22;40578;53.178;5.846;2022-12-07T04:42:10;3.80;1.00
54680;DHT22;40578;53.178;5.846;2022-12-07T04:44:36;3.70;1.00
54680;DHT22;40578;53.178;5.846;2022-12-07T04:47:02;3.70;80.10
54680;DHT22;40578;53.178;5.846;2022-12-07T04:49:28;4.20;1.00
54680;DHT22;40578;53.178;5.846;2022-12-07T04:51:53;3.70;35.20
54680;DHT22;40578;53.178;5.846;2022-12-07T04:54:19;3.80;64.50
54680;DHT22;40578;53.178;5.846;2022-12-07T04:56:45;3.80;72.90
54680;DHT22;40578;53.178;5.846;2022-12-07T04:59:12;3.70;93.80
54680;DHT22;40578;53.178;5.846;2022-12-07T05:01:38;3.80;99.90
54680;DHT22;40578;53.178;5.846;2022-12-07T05:04:04;3.70;99.90
54680;DHT22;40578;53.178;5.846;2022-12-07T05:06:30;3.80;99.90
54680;DHT22;40578;53.178;5.846;2022-12-07T05:08:56;4.00;99.90
54680;DHT22;40578;53.178;5.846;2022-12-07T05:11:22;4.00;99.90
54680;DHT22;40578;53.178;5.846;2022-12-07T05:14:18;3.90;99.90
54680;DHT22;40578;53.178;5.846;2022-12-07T05:16:45;4.00;99.90
54680;DHT22;40578;53.178;5.846;2022-12-07T05:19:12;4.00;99.90
54680;DHT22;40578;53.178;5.846;2022-12-07T05:21:38;4.20;99.90
54680;DHT22;40578;53.178;5.846;2022-12-07T05:24:05;4.20;99.90
54680;DHT22;40578;53.178;5.846;2022-12-07T05:26:31;4.00;99.90
54680;DHT22;40578;53.178;5.846;2022-12-07T05:28:57;4.20;99.90
54680;DHT22;40578;53.178;5.846;2022-12-07T05:31:24;4.10;99.90
54680;DHT22;40578;53.178;5.846;2022-12-07T05:33:50;4.20;99.90
54680;DHT22;40578;53.178;5.846;2022-12-07T05:36:16;4.20;99.90
54680;DHT22;40578;53.178;5.846;2022-12-07T05:38:42;4.70;99.90
54680;DHT22;40578;53.178;5.846;2022-12-07T05:41:08;4.70;99.90
54680;DHT22;40578;53.178;5.846;2022-12-07T05:43:55;4.00;99.90
54680;DHT22;40578;53.178;5.846;2022-12-07T05:46:20;4.00;99.90
54680;DHT22;40578;53.178;5.846;2022-12-07T05:48:46;5.20;99.90
54680;DHT22;40578;53.178;5.846;2022-12-07T05:51:11;3.80;99.90
54680;DHT22;40578;53.178;5.846;2022-12-07T05:53:37;3.80;99.90
54680;DHT22;40578;53.178;5.846;2022-12-07T05:56:03;3.80;99.90
54680;DHT22;40578;53.178;5.846;2022-12-07T05:58:28;3.70;99.90
54680;DHT22;40578;53.178;5.846;2022-12-07T06:01:12;3.80;99.90
54680;DHT22;40578;53.178;5.846;2022-12-07T06:03:38;3.90;99.90
54680;DHT22;40578;53.178;5.846;2022-12-07T06:06:04;3.90;99.90
54680;DHT22;40578;53.178;5.846;2022-12-07T06:08:29;3.90;99.90
54680;DHT22;40578;53.178;5.846;2022-12-07T06:10:55;3.80;99.90
54680;DHT22;40578;53.178;5.846;2022-12-07T06:13:41;3.70;99.90
54680;DHT22;40578;53.178;5.846;2022-12-07T06:16:06;3.70;99.90
54680;DHT22;40578;53.178;5.846;2022-12-07T06:18:32;3.70;99.90
54680;DHT22;40578;53.178;5.846;2022-12-07T06:20:58;3.40;99.90
54680;DHT22;40578;53.178;5.846;2022-12-07T06:23:24;3.30;99.90
54680;DHT22;40578;53.178;5.846;2022-12-07T06:25:49;3.30;99.90
54680;DHT22;40578;53.178;5.846;2022-12-07T06:28:15;3.40;99.90
54680;DHT22;40578;53.178;5.846;2022-12-07T06:30:40;3.20;99.90
54680;DHT22;40578;53.178;5.846;2022-12-07T06:33:06;3.30;99.90
54680;DHT22;40578;53.178;5.846;2022-12-07T06:35:33;3.30;99.90
54680;DHT22;40578;53.178;5.846;2022-12-07T06:37:58;3.20;99.90
54680;DHT22;40578;53.178;5.846;2022-12-07T06:40:24;3.30;99.90
54680;DHT22;40578;53.178;5.846;2022-12-07T06:42:50;3.40;99.90
54680;DHT22;40578;53.178;5.846;2022-12-07T06:45:16;3.30;99.90
54680;DHT22;40578;53.178;5.846;2022-12-07T06:47:41;3.40;99.90
54680;DHT22;40578;53.178;5.846;2022-12-07T06:50:07;3.50;99.90
54680;DHT22;40578;53.178;5.846;2022-12-07T06:52:33;3.60;99.90
54680;DHT22;40578;53.178;5.846;2022-12-07T06:54:59;3.80;99.90
54680;DHT22;40578;53.178;5.846;2022-12-07T06:57:25;3.80;99.90
54680;DHT22;40578;53.178;5.846;2022-12-07T06:59:51;3.80;63.40
54680;DHT22;40578;53.178;5.846;2022-12-07T07:02:16;3.80;1.00
54680;DHT22;40578;53.178;5.846;2022-12-07T07:04:42;3.80;1.00
54680;DHT22;40578;53.178;5.846;2022-12-07T07:07:08;3.70;1.00
54680;DHT22;40578;53.178;5.846;2022-12-07T07:09:36;3.60;1.00
54680;DHT22;40578;53.178;5.846;2022-12-07T07:12:02;3.60;1.00
54680;DHT22;40578;53.178;5.846;2022-12-07T07:14:27;3.70;1.00
54680;DHT22;40578;53.178;5.846;2022-12-07T07:16:53;3.70;1.00
54680;DHT22;40578;53.178;5.846;2022-12-07T07:19:19;3.60;1.00
54680;DHT22;40578;53.178;5.846;2022-12-07T07:21:44;3.70;1.00
54680;DHT22;40578;53.178;5.846;2022-12-07T07:24:10;3.80;1.00
54680;DHT22;40578;53.178;5.846;2022-12-07T07:26:35;3.70;1.00
54680;DHT22;40578;53.178;5.846;2022-12-07T07:29:01;3.90;1.00
54680;DHT22;40578;53.178;5.846;2022-12-07T07:31:27;3.70;1.00
54680;DHT22;40578;53.178;5.846;2022-12-07T07:33:53;3.80;1.00
54680;DHT22;40578;53.178;5.846;2022-12-07T07:36:18;3.80;1.00
54680;DHT22;40578;53.178;5.846;2022-12-07T07:38:44;3.80;1.00
54680;DHT22;40578;53.178;5.846;2022-12-07T07:41:09;3.80;99.90
54680;DHT22;40578;53.178;5.846;2022-12-07T07:43:35;3.90;99.90
54680;DHT22;40578;53.178;5.846;2022-12-07T07:46:00;4.00;1.00
54680;DHT22;40578;53.178;5.846;2022-12-07T07:48:26;4.10;1.00
54680;DHT22;40578;53.178;5.846;2022-12-07T07:50:52;3.90;1.00
54680;DHT22;40578;53.178;5.846;2022-12-07T07:53:17;3.80;1.00
54680;DHT22;40578;53.178;5.846;2022-12-07T07:55:51;3.80;1.00
54680;DHT22;40578;53.178;5.846;2022-12-07T07:58:17;3.90;1.00
54680;DHT22;40578;53.178;5.846;2022-12-07T08:00:43;3.60;1.00
54680;DHT22;40578;53.178;5.846;2022-12-07T08:03:08;3.60;23.10
54680;DHT22;40578;53.178;5.846;2022-12-07T08:05:36;3.60;57.70
54680;DHT22;40578;53.178;5.846;2022-12-07T08:08:02;3.50;84.10
54680;DHT22;40578;53.178;5.846;2022-12-07T08:10:28;3.40;99.90
54680;DHT22;40578;53.178;5.846;2022-12-07T08:12:53;3.40;99.90
54680;DHT22;40578;53.178;5.846;2022-12-07T08:15:40;3.50;99.90
54680;DHT22;40578;53.178;5.846;2022-12-07T08:18:07;3.60;99.90
54680;DHT22;40578;53.178;5.846;2022-12-07T08:20:34;3.60;99.90
54680;DHT22;40578;53.178;5.846;2022-12-07T08:23:01;3.80;99.90
54680;DHT22;40578;53.178;5.846;2022-12-07T08:25:27;3.90;99.90
54680;DHT22;40578;53.178;5.846;2022-12-07T08:27:53;4.00;99.90
54680;DHT22;40578;53.178;5.846;2022-12-07T08:30:20;4.00;99.90
54680;DHT22;40578;53.178;5.846;2022-12-07T08:32:46;3.90;99.90
54680;DHT22;40578;53.178;5.846;2022-12-07T08:35:12;4.00;99.90
54680;DHT22;40578;53.178;5.846;2022-12-07T08:37:38;4.00;99.90
54680;DHT22;40578;53.178;5.846;2022-12-07T08:40:05;3.70;99.90
54680;DHT22;40578;53.178;5.846;2022-12-07T08:42:31;3.90;99.90
54680;DHT22;40578;53.178;5.846;2022-12-07T08:45:14;3.90;99.90
54680;DHT22;40578;53.178;5.846;2022-12-07T08:48:07;3.90;99.90
54680;DHT22;40578;53.178;5.846;2022-12-07T08:50:33;3.80;99.90
54680;DHT22;40578;53.178;5.846;2022-12-07T08:53:00;3.80;99.90
54680;DHT22;40578;53.178;5.846;2022-12-07T08:55:27;3.80;99.90
54680;DHT22;40578;53.178;5.846;2022-12-07T08:57:52;3.80;99.90
54680;DHT22;40578;53.178;5.846;2022-12-07T09:00:18;4.60;99.90
54680;DHT22;40578;53.178;5.846;2022-12-07T09:02:45;3.70;97.50
54680;DHT22;40578;53.178;5.846;2022-12-07T09:05:12;3.70;99.90
54680;DHT22;40578;53.178;5.846;2022-12-07T09:07:40;3.70;99.90
54680;DHT22;40578;53.178;5.846;2022-12-07T09:10:06;3.50;99.90
54680;DHT22;40578;53.178;5.846;2022-12-07T09:12:32;3.60;99.90
54680;DHT22;40578;53.178;5.846;2022-12-07T09:14:58;3.60;99.90
54680;DHT22;40578;53.178;5.846;2022-12-07T09:17:23;3.70;99.90
54680;DHT22;40578;53.178;5.846;2022-12-07T09:19:49;3.60;99.90
54680;DHT22;40578;53.178;5.846;2022-12-07T09:22:15;3.60;99.90
54680;DHT22;40578;53.178;5.846;2022-12-07T09:24:41;3.90;99.90
54680;DHT22;40578;53.178;5.846;2022-12-07T09:27:06;4.00;99.90
54680;DHT22;40578;53.178;5.846;2022-12-07T09:29:32;4.10;99.90
54680;DHT22;40578;53.178;5.846;2022-12-07T09:31:57;4.10;99.90
54680;DHT22;40578;53.178;5.846;2022-12-07T09:34:23;4.40;1.00
54680;DHT22;40578;53.178;5.846;2022-12-07T09:36:49;4.50;99.90
54680;DHT22;40578;53.178;5.846;2022-12-07T09:39:14;4.50;99.90
54680;DHT22;40578;53.178;5.846;2022-12-07T09:41:42;4.50;99.90
54680;DHT22;40578;53.178;5.846;2022-12-07T09:44:12;4.60;99.90
54680;DHT22;40578;53.178;5.846;2022-12-07T09:46:40;4.40;99.90
54680;DHT22;40578;53.178;5.846;2022-12-07T09:49:12;4.40;99.90
54680;DHT22;40578;53.178;5.846;2022-12-07T09:51:39;4.40;99.90
54680;DHT22;40578;53.178;5.846;2022-12-07T09:54:05;4.40;99.90
54680;DHT22;40578;53.178;5.846;2022-12-07T09:56:31;4.50;1.00
54680;DHT22;40578;53.178;5.846;2022-12-07T09:59:01;4.50;1.00
54680;DHT22;40578;53.178;5.846;2022-12-07T10:01:30;4.60;1.00
54680;DHT22;40578;53.178;5.846;2022-12-07T10:06:36;4.60;99.90
54680;DHT22;40578;53.178;5.846;2022-12-07T10:09:09;4.60;1.00
54680;DHT22;40578;53.178;5.846;2022-12-07T10:11:35;4.70;99.90
54680;DHT22;40578;53.178;5.846;2022-12-07T10:14:12;4.70;99.90
54680;DHT22;40578;53.178;5.846;2022-12-07T10:16:41;4.70;99.90
54680;DHT22;40578;53.178;5.846;2022-12-07T10:22:14;5.00;92.30
54680;DHT22;40578;53.178;5.846;2022-12-07T10:24:41;5.10;99.90
54680;DHT22;40578;53.178;5.846;2022-12-07T10:27:31;5.10;1.00
54680;DHT22;40578;53.178;5.846;2022-12-07T10:29:57;5.10;1.00
54680;DHT22;40578;53.178;5.846;2022-12-07T10:32:35;5.00;99.90
54680;DHT22;40578;53.178;5.846;2022-12-07T10:37:45;5.00;79.40
54680;DHT22;40578;53.178;5.846;2022-12-07T10:40:33;5.00;99.90
54680;DHT22;40578;53.178;5.846;2022-12-07T10:48:52;5.00;99.90
54680;DHT22;40578;53.178;5.846;2022-12-07T10:54:11;5.00;99.90
54680;DHT22;40578;53.178;5.846;2022-12-07T10:59:56;5.00;1.00
54680;DHT22;40578;53.178;5.846;2022-12-07T11:13:51;4.80;1.00
54680;DHT22;40578;53.178;5.846;2022-12-07T11:16:21;4.70;99.90
54680;DHT22;40578;53.178;5.846;2022-12-07T11:18:57;4.80;99.90
54680;DHT22;40578;53.178;5.846;2022-12-07T11:24:09;4.70;99.90
54680;DHT22;40578;53.178;5.846;2022-12-07T11:27:17;4.80;1.00
54680;DHT22;40578;53.178;5.846;2022-12-07T11:30:00;5.00;1.00
54680;DHT22;40578;53.178;5.846;2022-12-07T11:37:47;5.00;1.00
54680;DHT22;40578;53.178;5.846;2022-12-07T11:40:30;5.10;1.00
54680;DHT22;40578;53.178;5.846;2022-12-07T11:43:13;5.10;1.00
54680;DHT22;40578;53.178;5.846;2022-12-07T11:45:42;5.20;1.00
54680;DHT22;40578;53.178;5.846;2022-12-07T11:50:57;5.00;99.90
54680;DHT22;40578;53.178;5.846;2022-12-07T11:54:10;4.80;99.90
54680;DHT22;40578;53.178;5.846;2022-12-07T11:56:15;4.70;99.90
54680;DHT22;40578;53.178;5.846;2022-12-07T12:06:22;4.80;99.90
54680;DHT22;40578;53.178;5.846;2022-12-07T12:09:00;4.90;97.30
54680;DHT22;40578;53.178;5.846;2022-12-07T12:14:18;5.00;88.10
54680;DHT22;40578;53.178;5.846;2022-12-07T12:16:58;5.00;93.80
54680;DHT22;40578;53.178;5.846;2022-12-07T12:19:33;4.90;94.70
54680;DHT22;40578;53.178;5.846;2022-12-07T12:22:20;5.00;99.90
54680;DHT22;40578;53.178;5.846;2022-12-07T12:24:52;5.00;99.90
54680;DHT22;40578;53.178;5.846;2022-12-07T12:27:25;5.00;99.90
54680;DHT22;40578;53.178;5.846;2022-12-07T12:30:00;5.10;99.90
54680;DHT22;40578;53.178;5.846;2022-12-07T12:32:41;5.00;1.00
54680;DHT22;40578;53.178;5.846;2022-12-07T12:35:42;4.90;1.00
54680;DHT22;40578;53.178;5.846;2022-12-07T12:38:28;4.90;1.00
54680;DHT22;40578;53.178;5.846;2022-12-07T12:40:55;5.00;62.00
54680;DHT22;40578;53.178;5.846;2022-12-07T12:43:51;5.10;70.00
54680;DHT22;40578;53.178;5.846;2022-12-07T12:54:34;5.40;93.10
54680;DHT22;40578;53.178;5.846;2022-12-07T13:10:43;5.00;99.90
54680;DHT22;40578;53.178;5.846;2022-12-07T13:15:44;4.90;99.90
54680;DHT22;40578;53.178;5.846;2022-12-07T13:20:59;4.70;1.00
54680;DHT22;40578;53.178;5.846;2022-12-07T13:23:29;4.70;1.00
54680;DHT22;40578;53.178;5.846;2022-12-07T13:26:02;4.70;1.00
54680;DHT22;40578;53.178;5.846;2022-12-07T13:28:36;4.70;57.00
54680;DHT22;40578;53.178;5.846;2022-12-07T13:31:09;4.70;5.60
54680;DHT22;40578;53.178;5.846;2022-12-07T13:33:36;4.60;6.90
54680;DHT22;40578;53.178;5.846;2022-12-07T13:36:02;4.60;98.30
54680;DHT22;40578;53.178;5.846;2022-12-07T13:38:35;4.60;1.00
54680;DHT22;40578;53.178;5.846;2022-12-07T13:43:30;4.70;12.50
54680;DHT22;40578;53.178;5.846;2022-12-07T13:45:57;4.60;22.80
54680;DHT22;40578;53.178;5.846;2022-12-07T13:48:46;4.60;1.00
54680;DHT22;40578;53.178;5.846;2022-12-07T13:51:26;4.50;9.10
54680;DHT22;40578;53.178;5.846;2022-12-07T13:54:00;4.40;34.50
54680;DHT22;40578;53.178;5.846;2022-12-07T13:56:34;4.50;98.90
54680;DHT22;40578;53.178;5.846;2022-12-07T13:59:00;4.40;85.00
54680;DHT22;40578;53.178;5.846;2022-12-07T14:01:26;4.40;80.10
54680;DHT22;40578;53.178;5.846;2022-12-07T14:03:52;4.30;97.70
54680;DHT22;40578;53.178;5.846;2022-12-07T14:06:23;4.30;94.70
54680;DHT22;40578;53.178;5.846;2022-12-07T14:08:51;4.40;99.90
54680;DHT22;40578;53.178;5.846;2022-12-07T14:11:30;4.30;99.90
54680;DHT22;40578;53.178;5.846;2022-12-07T14:13:59;4.30;99.90
54680;DHT22;40578;53.178;5.846;2022-12-07T14:16:34;4.30;99.90
54680;DHT22;40578;53.178;5.846;2022-12-07T14:19:05;4.20;99.90
54680;DHT22;40578;53.178;5.846;2022-12-07T14:21:33;4.10;99.90
54680;DHT22;40578;53.178;5.846;2022-12-07T14:24:10;4.10;99.90
54680;DHT22;40578;53.178;5.846;2022-12-07T14:26:37;4.10;99.90
54680;DHT22;40578;53.178;5.846;2022-12-07T14:29:30;4.00;99.90
54680;DHT22;40578;53.178;5.846;2022-12-07T14:34:39;4.00;99.90
54680;DHT22;40578;53.178;5.846;2022-12-07T14:37:09;3.90;99.90
54680;DHT22;40578;53.178;5.846;2022-12-07T14:39:34;3.90;99.90
54680;DHT22;40578;53.178;5.846;2022-12-07T14:42:00;3.90;99.90
54680;DHT22;40578;53.178;5.846;2022-12-07T14:44:26;3.90;1.00
54680;DHT22;40578;53.178;5.846;2022-12-07T14:46:51;3.90;1.00
54680;DHT22;40578;53.178;5.846;2022-12-07T14:49:17;3.90;1.00
54680;DHT22;40578;53.178;5.846;2022-12-07T14:51:45;4.00;1.00
54680;DHT22;40578;53.178;5.846;2022-12-07T14:54:17;4.00;1.00
54680;DHT22;40578;53.178;5.846;2022-12-07T14:56:44;4.00;1.00
54680;DHT22;40578;53.178;5.846;2022-12-07T14:59:11;3.90;1.00
54680;DHT22;40578;53.178;5.846;2022-12-07T15:01:37;3.80;1.00
54680;DHT22;40578;53.178;5.846;2022-12-07T15:04:04;3.80;1.00
54680;DHT22;40578;53.178;5.846;2022-12-07T15:06:30;3.80;1.00
54680;DHT22;40578;53.178;5.846;2022-12-07T15:08:55;3.70;1.00
54680;DHT22;40578;53.178;5.846;2022-12-07T15:11:21;3.70;1.00
54680;DHT22;40578;53.178;5.846;2022-12-07T15:13:46;3.60;1.00
54680;DHT22;40578;53.178;5.846;2022-12-07T15:16:31;3.60;14.50
54680;DHT22;40578;53.178;5.846;2022-12-07T15:18:56;3.50;50.60
54680;DHT22;40578;53.178;5.846;2022-12-07T15:21:22;3.40;61.10
54680;DHT22;40578;53.178;5.846;2022-12-07T15:23:48;3.40;73.70
54680;DHT22;40578;53.178;5.846;2022-12-07T15:26:13;3.50;99.90
54680;DHT22;40578;53.178;5.846;2022-12-07T15:28:40;3.50;99.90
54680;DHT22;40578;53.178;5.846;2022-12-07T15:31:16;3.40;99.90
54680;DHT22;40578;53.178;5.846;2022-12-07T15:33:42;3.50;99.90
54680;DHT22;40578;53.178;5.846;2022-12-07T15:36:18;3.40;99.90
54680;DHT22;40578;53.178;5.846;2022-12-07T15:38:43;3.50;99.90
54680;DHT22;40578;53.178;5.846;2022-12-07T15:41:09;3.40;99.90
54680;DHT22;40578;53.178;5.846;2022-12-07T15:43:36;3.40;99.90
54680;DHT22;40578;53.178;5.846;2022-12-07T15:46:20;3.20;99.90
54680;DHT22;40578;53.178;5.846;2022-12-07T15:48:46;3.20;99.90
54680;DHT22;40578;53.178;5.846;2022-12-07T15:51:11;3.10;99.90
54680;DHT22;40578;53.178;5.846;2022-12-07T15:53:37;3.20;99.90
54680;DHT22;40578;53.178;5.846;2022-12-07T15:56:07;3.00;99.90
54680;DHT22;40578;53.178;5.846;2022-12-07T15:58:33;2.90;99.90
54680;DHT22;40578;53.178;5.846;2022-12-07T16:00:58;3.00;99.90
54680;DHT22;40578;53.178;5.846;2022-12-07T16:03:24;2.70;99.90
54680;DHT22;40578;53.178;5.846;2022-12-07T16:05:51;2.80;99.90
54680;DHT22;40578;53.178;5.846;2022-12-07T16:08:17;2.80;99.90
54680;DHT22;40578;53.178;5.846;2022-12-07T16:10:42;2.70;99.90
54680;DHT22;40578;53.178;5.846;2022-12-07T16:13:09;2.50;99.90
54680;DHT22;40578;53.178;5.846;2022-12-07T16:15:38;2.60;99.90
54680;DHT22;40578;53.178;5.846;2022-12-07T16:18:04;2.70;99.90
54680;DHT22;40578;53.178;5.846;2022-12-07T16:20:29;2.50;99.90
54680;DHT22;40578;53.178;5.846;2022-12-07T16:22:55;2.70;99.90
54680;DHT22;40578;53.178;5.846;2022-12-07T16:25:20;2.70;99.90
54680;DHT22;40578;53.178;5.846;2022-12-07T16:27:46;2.30;99.90
54680;DHT22;40578;53.178;5.846;2022-12-07T16:30:13;2.30;99.90
54680;DHT22;40578;53.178;5.846;2022-12-07T16:32:39;2.70;99.90
54680;DHT22;40578;53.178;5.846;2022-12-07T16:35:04;2.60;99.90
54680;DHT22;40578;53.178;5.846;2022-12-07T16:37:30;2.70;99.90
54680;DHT22;40578;53.178;5.846;2022-12-07T16:39:56;2.40;99.90
54680;DHT22;40578;53.178;5.846;2022-12-07T16:42:21;4.20;99.90
54680;DHT22;40578;53.178;5.846;2022-12-07T16:44:47;2.70;99.90
54680;DHT22;40578;53.178;5.846;2022-12-07T16:47:12;2.60;99.90
54680;DHT22;40578;53.178;5.846;2022-12-07T16:49:38;2.70;99.90
54680;DHT22;40578;53.178;5.846;2022-12-07T16:52:04;2.80;99.90
54680;DHT22;40578;53.178;5.846;2022-12-07T16:54:29;2.70;99.90
54680;DHT22;40578;53.178;5.846;2022-12-07T16:56:58;2.60;99.90
54680;DHT22;40578;53.178;5.846;2022-12-07T16:59:24;2.60;99.90
54680;DHT22;40578;53.178;5.846;2022-12-07T17:01:49;2.80;99.90
54680;DHT22;40578;53.178;5.846;2022-12-07T17:04:15;2.90;99.90
54680;DHT22;40578;53.178;5.846;2022-12-07T17:06:40;2.80;99.90
54680;DHT22;40578;53.178;5.846;2022-12-07T17:09:06;2.90;99.90
54680;DHT22;40578;53.178;5.846;2022-12-07T17:11:35;2.70;99.90
54680;DHT22;40578;53.178;5.846;2022-12-07T17:14:01;3.00;99.90
54680;DHT22;40578;53.178;5.846;2022-12-07T17:16:46;3.10;99.90
54680;DHT22;40578;53.178;5.846;2022-12-07T17:19:14;3.10;99.90
54680;DHT22;40578;53.178;5.846;2022-12-07T17:21:40;3.10;99.90
54680;DHT22;40578;53.178;5.846;2022-12-07T17:24:08;3.00;99.90
54680;DHT22;40578;53.178;5.846;2022-12-07T17:26:34;3.20;99.90
54680;DHT22;40578;53.178;5.846;2022-12-07T17:29:00;3.20;99.90
54680;DHT22;40578;53.178;5.846;2022-12-07T17:31:26;3.30;99.90
54680;DHT22;40578;53.178;5.846;2022-12-07T17:33:51;3.30;99.90
54680;DHT22;40578;53.178;5.846;2022-12-07T17:36:20;3.20;99.90
54680;DHT22;40578;53.178;5.846;2022-12-07T17:38:46;3.00;99.90
54680;DHT22;40578;53.178;5.846;2022-12-07T17:41:22;2.90;99.90
54680;DHT22;40578;53.178;5.846;2022-12-07T17:44:08;2.90;99.90
54680;DHT22;40578;53.178;5.846;2022-12-07T17:46:34;2.80;99.90
54680;DHT22;40578;53.178;5.846;2022-12-07T17:49:00;2.90;99.90
54680;DHT22;40578;53.178;5.846;2022-12-07T17:51:26;2.60;99.90
54680;DHT22;40578;53.178;5.846;2022-12-07T17:54:11;2.70;99.90
54680;DHT22;40578;53.178;5.846;2022-12-07T17:56:37;2.60;99.90
54680;DHT22;40578;53.178;5.846;2022-12-07T17:59:04;2.50;99.90